Todd, Minnesota
Current Conditions -  °F | °C
As of 10:53 AM on Friday 31 Oct 2014 (Local Time) from KPKD Reporting Station
Clear Clear  
Wind Chill: 24°   Ceiling: Unl
Heat Index: 29°   Visibility: 10mi
Dew Point: 20°   Wind: 5mph
Humidity: 69%   Direction: NA
Pressure: 30.57"   Gusts: NA
Location:  46.9966°N, 95.0029°W
Report Text: KPKD 311553Z AUTO VRB04KT 10SM CLR M02/M07 A3057 RMK AO2 SLP377 T10171067 TSNO
Loading
Personal Weather Stations






























Interactive Weather Map
Tropical Storm Tracking
New forecast layout! Learn more

10-Day Weather Forecast

Advertisements
Track Severe Weather on mobile